Rechercher aéroport 
image banner adimage banner adimage banner ad
image banner ad

KSMO - Santa Monica Muni

Situé à Santa Monica, United States

ICAO - SMO, IATA - SMO

Données fournies par Airmate  

Information générale

Coordonnées: N34°0'57" W118°27'5"
Élévation : 170 feet MSL.
Variation magnétique : 12° East
Voir autres Aéroports à California

Données opérationnelles

Special qualification required
Heure actuelle UTC:
Heure actuelle locale:
Météo
METAR: KSMO 020551Z AUTO 00000KT 10SM CLR 18/14 A3002 RMK AO2 SLP164 T01830144 10228 20183 51013
TAF: KSMO 020533Z 0206/0306 VRB03KT P6SM SKC FM021700 23005KT P6SM SKC FM022000 23010KT P6SM SKC FM030400 VRB03KT P6SM SKC
Voir NOTAMs / SUP AIP / TFR affectant cet aéroport [VIEW]
Fréquences de communication: [VIEW]

Pistes:

Identifiant RWYQFULongueur (ft)Largeur (ft)SurfaceLDA (ft)
0344°3500150ASPH3500
21224°3500150ASPH3500

Coordonnées de l'aéroport

Adresse: Santa Monica United States

Autres services d'aviation

Écoles de pilotage

American Flyers

American Flyers
SMO@af.tv+1(310)390-2099

Proteus Air Services

Proteus Air Services
ksmo@proteus.aero+1(310)398-6929

Santa Monica Aviation, Inc.

Santa Monica Aviation, Inc.

Skyward Aviation

Skyward Aviation

Santa Monica Flyers

Santa Monica Flyers

Vue satellite de KSMO